Pos First Name Last Name YOB Country Start
Num
Time Swim T1 Bike T2 Run
1 Itamar Eshed 2000 ISR 1 00:56:13 00:09:17 00:01:12 00:27:46 00:00:40 00:17:19
2 Itamar Shevach Levanon 2001 ISR 3 00:56:23 00:10:10 00:01:01 00:27:42 00:00:35 00:16:57
3 Raz Haim 1999 ISR 57 00:56:24 00:10:03 00:01:06 00:27:46 00:00:40 00:16:51
4 Elai Izhak Chaski 2002 ISR 22 00:56:33 00:10:07 00:01:08 00:27:40 00:00:38 00:17:02
5 Valentin Marievskiy 2000 UKR 14 00:56:39 00:10:21 00:01:06 00:27:34 00:00:43 00:16:57
6 Jan Škrjanc 2001 SLO 2 00:56:55 00:09:23 00:01:07 00:27:43 00:00:36 00:18:08
7 Johannes Sikk 1999 EST 15 00:57:02 00:09:50 00:01:08 00:27:59 00:00:43 00:17:25
8 Vitalii Vorontsov 2000 UKR 16 00:57:07 00:10:15 00:01:07 00:27:36 00:00:43 00:17:27
9 Itay Karsenti 2001 ISR 65 00:57:11 00:10:14 00:01:06 00:27:35 00:00:36 00:17:42
10 Yuval Eventom Hadash 2001 ISR 18 00:57:18 00:10:20 00:01:08 00:27:28 00:00:43 00:17:42
11 Savelijs Suharževskis 1999 LAT 10 00:57:19 00:10:18 00:01:05 00:27:32 00:00:39 00:17:47
12 Žiga Hutter 2000 SLO 54 00:57:26 00:09:20 00:01:09 00:27:44 00:00:35 00:18:39
13 Oleksiy Astafyev 1999 UKR 19 00:57:32 00:09:18 00:01:08 00:27:49 00:00:42 00:18:37
14 Alon Cohen 2002 ISR 58 00:57:41 00:10:10 00:01:07 00:27:44 00:00:40 00:18:02
15 Artjoms Gajevskis 2000 LAT 8 00:57:48 00:10:03 00:01:10 00:27:44 00:00:37 00:18:15
16 Kıvanc Sahinkaya 2002 TUR 32 00:57:56 00:09:45 00:01:10 00:28:01 00:00:41 00:18:20
17 Noam Mesilati 2001 ISR 64 00:58:24 00:10:08 00:01:13 00:27:41 00:00:39 00:18:45
18 Tsikhan Shchamialiou 2000 BLR 17 00:58:28 00:10:15 00:01:11 00:27:28 00:00:37 00:18:59
19 Erick Rogoz Lörincz 2001 ROU 4 00:58:32 00:10:18 00:01:03 00:27:39 00:00:41 00:18:52
20 Cristian Virgil Tranulea 2000 ROU 5 00:58:48 00:10:16 00:01:09 00:27:37 00:00:44 00:19:03
21 Omer Mesilati 2001 ISR 56 00:58:59 00:10:06 00:01:08 00:27:45 00:00:56 00:19:07
22 Mykola Nikolenko 2000 UKR 62 00:59:00 00:10:08 00:01:16 00:27:38 00:00:45 00:19:16
23 Luka Grgorinic 1999 CRO 6 00:59:04 00:09:33 00:01:02 00:28:21 00:00:39 00:19:31
24 Volodymyr Kritiko 1999 UKR 49 00:59:09 00:09:45 00:01:09 00:28:07 00:00:41 00:19:29
25 Liam Amitai 2001 ISR 29 00:59:12 00:10:09 00:01:07 00:27:41 00:00:41 00:19:37
26 Anton Mykytiuk 1999 UKR 40 00:59:18 00:10:25 00:01:16 00:28:58 00:00:43 00:17:58
27 Kaarel Trepp 2000 EST 47 00:59:30 00:10:11 00:01:17 00:27:32 00:00:47 00:19:45
28 Vasyl Vynnytskyi 2002 UKR 42 00:59:43 00:10:15 00:01:13 00:27:31 00:00:41 00:20:05
29 Markyan Bohutskyy 2000 UKR 23 00:59:46 00:10:05 00:01:11 00:27:42 00:00:41 00:20:09
30 Kyrylo Novikov 2000 UKR 30 00:59:49 00:10:23 00:01:10 00:29:15 00:00:38 00:18:26
31 David Videnšek 2001 SLO 25 00:59:57 00:09:39 00:01:15 00:28:05 00:00:41 00:20:20
32 Muhammet Bertuğ Polatci 1999 TUR 9 00:59:58 00:11:06 00:01:00 00:28:44 00:00:40 00:18:31
33 Adam Loon 2002 ISR 27 00:59:58 00:10:06 00:01:08 00:27:42 00:00:39 00:20:25
34 Armin Angerjärv 1999 EST 21 01:00:13 00:10:08 00:01:18 00:29:27 00:00:45 00:18:37
35 Catalin Romas 2000 ROU 11 01:00:22 00:10:43 00:01:10 00:28:58 00:00:43 00:18:50
36 Kyrylo Ivashkov 1999 UKR 24 01:00:44 00:10:46 00:01:13 00:28:53 00:00:41 00:19:12
37 Guillermo Sanz Cristóbal 1999 ESP 48 01:00:54 00:10:26 00:01:11 00:29:14 00:00:43 00:19:23
38 Daniil Lavrushyn 2001 UKR 52 01:00:58 00:10:05 00:01:11 00:29:35 00:00:43 00:19:25
39 Bar Halman 2001 ISR 26 01:01:04 00:10:26 00:01:06 00:29:17 00:00:39 00:19:38
40 Ivan Tretiak 2002 UKR 60 01:01:23 00:10:56 00:01:11 00:28:46 00:00:42 00:19:51
41 Muzaffer Gur 2002 TUR 28 01:01:36 00:10:40 00:01:09 00:29:01 00:00:38 00:20:10
42 Denys Kyrylovych 1999 UKR 55 01:01:51 00:10:50 00:01:14 00:28:45 00:00:43 00:20:20
43 Hennadii Anzin 1999 UKR 12 01:02:02 00:09:14 00:01:13 00:27:49 00:00:45 00:23:02
44 Volodymyr Solomeniuk 2001 UKR 39 01:02:06 00:10:42 00:01:13 00:28:59 00:00:45 00:20:30
45 Jēkabs Audzēvičs 2001 LAT 38 01:02:32 00:09:46 00:01:11 00:29:06 00:00:38 00:21:52
46 Myron Boiko 2002 UKR 61 01:02:43 00:10:13 00:01:12 00:29:26 00:00:43 00:21:10
47 Idan Tepper 2002 ISR 59 01:03:03 00:10:51 00:01:12 00:28:45 00:00:41 00:21:36
48 Volodymyr Shmanov 2000 UKR 20 01:03:18 00:10:46 00:01:10 00:28:52 00:00:41 00:21:51
49 Danil Farbun 2000 UKR 53 01:04:03 00:10:47 00:01:19 00:31:03 00:00:38 00:20:19
50 Daniil Padolski 2001 BLR 50 01:05:10 00:11:09 00:01:12 00:30:41 00:00:42 00:21:29
51 Bohdan Bratko 2000 UKR 44 01:05:18 00:11:09 00:01:15 00:30:43 00:00:52 00:21:21
52 Aviv Harel 2001 ISR 34 01:05:26 00:11:00 00:01:17 00:32:56 00:00:39 00:19:38
53 Markuss Ubavičs 2001 LAT 41 01:05:46 00:10:11 00:01:07 00:29:36 00:00:42 00:24:12
54 Pavlo Heorhiiev 2000 UKR 45 01:05:46 00:10:54 00:01:21 00:33:41 00:00:47 00:19:04
55 Nov Shemesh 2002 ISR 46 01:06:17 00:10:03 00:01:10 00:29:31 00:00:48 00:24:47
56 Matvejs Suharževskis 2002 LAT 43 01:08:11 00:10:57 00:01:17 00:30:58 00:00:44 00:24:17
57 Ivan But 2000 UKR 66 01:09:35 00:11:03 00:01:17 00:31:35 00:00:43 00:24:59
58 Rodion Pelykh 2002 UKR 33 01:09:53 00:10:27 00:01:19 00:34:49 00:00:47 00:22:33
59 Kirill Medvedev 2000 RUS 63 01:13:34 00:09:42 00:01:10 00:41:21 00:00:41 00:20:42
DSQ Raimonds Levickis 2002 LAT 36 DSQ 00:10:56 00:01:12 00:30:56 00:00:42 00:19:09
DNF Andrii Skrypka 2002 UKR 31 DNF 00:10:12 00:01:17 00:00:00 00:00:00 00:00:00
DNF Ido Gome 2002 ISR 37 DNF 00:00:00 00:00:00 00:00:00 00:00:00 00:00:00
Program notes:

Technical Delegate: Monica Flores/ESP. Head Referee: Magilevsky Leonid/UKR. Competition Jury: Monica Flores/ESP, Herwig Gabner/AUT, Sergey Lysov/UKR.
Distances: Swim: 750 m (1 lap), Bike 19.800 km (3 laps), Run: 5 km (3 laps)
Water Temperature 21.4ºC. Air Temperature 21.8ºC. Wetsuits not allowed.
Athlete #10 Suharževskis/LAT served a 10 seconds penalty by the race start.
Athletes #22 Chaski/ISR, #29 Amitai/ISR, #36 Levickis/LAT and #48 Sanz Cristóbal/ESP served a 10 seconds penalty during the run segment.
Athlete #36 Levickis/LAT was disqualified for shortcut the swim course.